createdAt,value
2018-08-31T00:00:22.404Z,0
2018-08-31T00:01:02.867Z,0
2018-08-31T00:01:43.227Z,0
2018-08-31T00:02:23.617Z,0
2018-08-31T00:03:03.983Z,0
2018-08-31T00:03:44.410Z,0
2018-08-31T00:04:24.752Z,0
2018-08-31T00:05:05.235Z,0
2018-08-31T00:05:45.661Z,0
2018-08-31T00:06:26.014Z,0
2018-08-31T00:07:06.452Z,0
2018-08-31T00:07:46.835Z,0
2018-08-31T00:08:27.264Z,0
2018-08-31T00:09:07.647Z,0
2018-08-31T00:09:48.068Z,0
2018-08-31T00:10:28.446Z,0
2018-08-31T00:11:08.835Z,0
2018-08-31T00:11:49.196Z,0
2018-08-31T00:12:29.590Z,0
2018-08-31T00:13:10.001Z,0
2018-08-31T00:13:50.407Z,0
2018-08-31T00:14:30.782Z,0
2018-08-31T00:15:11.191Z,0
2018-08-31T00:15:51.589Z,0
2018-08-31T00:16:31.991Z,0
2018-08-31T00:17:12.371Z,0
2018-08-31T00:17:52.773Z,0
2018-08-31T00:18:33.209Z,0
2018-08-31T00:19:13.582Z,0
2018-08-31T00:19:54.035Z,0
2018-08-31T00:20:34.464Z,0
2018-08-31T00:21:14.825Z,0
2018-08-31T00:21:55.190Z,0
2018-08-31T00:22:35.593Z,0
2018-08-31T00:23:16.056Z,0
2018-08-31T00:23:56.368Z,0
2018-08-31T00:24:36.751Z,0
2018-08-31T00:25:17.170Z,0
2018-08-31T00:25:57.526Z,0
2018-08-31T00:26:37.931Z,0
2018-08-31T00:27:18.261Z,0
2018-08-31T00:27:58.716Z,0
2018-08-31T00:28:39.108Z,0
2018-08-31T00:29:19.518Z,0
2018-08-31T00:29:59.930Z,0
2018-08-31T00:30:40.323Z,0
2018-08-31T00:31:20.727Z,0
2018-08-31T00:32:01.163Z,0
2018-08-31T00:32:41.543Z,0
2018-08-31T00:33:21.989Z,0
2018-08-31T00:34:02.379Z,0
2018-08-31T00:34:42.759Z,0
2018-08-31T00:35:23.178Z,0
2018-08-31T00:36:03.536Z,0
2018-08-31T00:36:43.976Z,0
2018-08-31T00:37:24.386Z,0
2018-08-31T00:38:04.757Z,0
2018-08-31T00:38:45.128Z,0
2018-08-31T00:39:25.511Z,0
2018-08-31T00:40:05.918Z,0
2018-08-31T00:40:46.359Z,0
2018-08-31T00:41:26.756Z,0
2018-08-31T00:42:07.151Z,0
2018-08-31T00:42:47.548Z,0
2018-08-31T00:43:27.960Z,0
2018-08-31T00:44:08.357Z,0
2018-08-31T00:44:48.780Z,0
2018-08-31T00:45:29.196Z,0
2018-08-31T00:46:09.560Z,0
2018-08-31T00:46:50.004Z,0
2018-08-31T00:47:30.367Z,0
2018-08-31T00:48:10.819Z,0
2018-08-31T00:48:51.191Z,0
2018-08-31T00:49:31.612Z,0
2018-08-31T00:50:11.985Z,0
2018-08-31T00:50:52.435Z,0
2018-08-31T00:53:12.291Z,0
2018-08-31T00:53:52.585Z,0
2018-08-31T00:54:33.011Z,0
2018-08-31T00:55:13.456Z,0
2018-08-31T00:55:53.845Z,0
2018-08-31T00:56:34.332Z,0
2018-08-31T00:57:14.682Z,0
2018-08-31T00:57:55.170Z,0
2018-08-31T00:58:35.441Z,0
2018-08-31T00:59:15.853Z,0
2018-08-31T00:59:56.242Z,0
2018-08-31T01:00:36.731Z,0
2018-08-31T01:01:17.090Z,0
2018-08-31T01:01:57.450Z,0
2018-08-31T01:02:37.844Z,0
2018-08-31T01:03:18.290Z,0
2018-08-31T01:03:58.685Z,0
2018-08-31T01:04:39.044Z,0
2018-08-31T01:05:19.497Z,0
2018-08-31T01:05:59.878Z,0
2018-08-31T01:06:40.348Z,0
2018-08-31T01:07:20.757Z,0
2018-08-31T01:08:01.201Z,0
2018-08-31T01:08:41.606Z,0
2018-08-31T01:09:21.988Z,0
2018-08-31T01:10:02.375Z,0
2018-08-31T01:10:42.796Z,0
2018-08-31T01:13:20.853Z,0
2018-08-31T01:14:01.097Z,0
2018-08-31T01:14:41.484Z,0
2018-08-31T01:15:21.897Z,0
2018-08-31T01:16:02.308Z,0
2018-08-31T01:16:42.722Z,0
2018-08-31T01:17:23.078Z,0
2018-08-31T01:18:03.475Z,0
2018-08-31T01:18:43.901Z,0
2018-08-31T01:19:24.327Z,0
2018-08-31T01:20:04.694Z,0
2018-08-31T01:20:45.104Z,0
2018-08-31T01:21:25.509Z,0
2018-08-31T01:22:05.866Z,0
2018-08-31T01:22:46.318Z,0
2018-08-31T01:23:26.727Z,0
2018-08-31T01:24:07.133Z,0
2018-08-31T01:24:47.515Z,0
2018-08-31T01:25:27.941Z,0
2018-08-31T01:26:08.339Z,0
2018-08-31T01:26:48.723Z,0
2018-08-31T01:27:29.141Z,0
2018-08-31T01:28:09.511Z,0
2018-08-31T01:28:49.933Z,0
2018-08-31T01:29:30.324Z,0
2018-08-31T01:30:10.733Z,0
2018-08-31T01:30:51.130Z,0
2018-08-31T01:31:31.580Z,0
2018-08-31T01:32:11.984Z,0
2018-08-31T01:34:31.569Z,0
2018-08-31T01:35:11.954Z,0
2018-08-31T01:35:52.370Z,0
2018-08-31T01:36:32.778Z,0
2018-08-31T01:37:13.168Z,0
2018-08-31T01:37:53.564Z,0
2018-08-31T01:38:33.977Z,0
2018-08-31T01:39:14.375Z,0
2018-08-31T01:39:54.753Z,0
2018-08-31T01:40:35.169Z,0
2018-08-31T01:41:15.560Z,0
2018-08-31T01:41:55.986Z,0
2018-08-31T01:42:36.385Z,0
2018-08-31T01:43:16.858Z,0
2018-08-31T01:43:57.155Z,0
2018-08-31T01:44:37.590Z,0
2018-08-31T01:45:18.017Z,0
2018-08-31T01:45:58.388Z,0
2018-08-31T01:46:38.787Z,0
2018-08-31T01:47:19.214Z,0
2018-08-31T01:47:59.598Z,0
2018-08-31T01:48:39.997Z,0
2018-08-31T01:49:20.404Z,0
2018-08-31T01:50:00.795Z,0
2018-08-31T01:50:41.230Z,0
2018-08-31T01:51:21.601Z,0
2018-08-31T01:52:01.972Z,0
2018-08-31T01:52:42.414Z,0
2018-08-31T01:53:22.789Z,0
2018-08-31T01:54:03.158Z,0
2018-08-31T01:54:43.578Z,0
2018-08-31T01:55:24.016Z,0
2018-08-31T01:56:04.445Z,0
2018-08-31T01:56:44.867Z,0
2018-08-31T01:57:25.222Z,0
2018-08-31T01:58:05.633Z,0
2018-08-31T01:58:46.086Z,0
2018-08-31T01:59:26.407Z,0
2018-08-31T02:00:06.818Z,0
2018-08-31T02:00:47.209Z,0
2018-08-31T02:01:27.591Z,0
2018-08-31T02:02:08.021Z,0
2018-08-31T02:02:48.445Z,0
2018-08-31T02:03:28.827Z,0
2018-08-31T02:04:09.249Z,0
2018-08-31T02:04:49.616Z,0
2018-08-31T02:05:30.007Z,0
2018-08-31T02:06:10.399Z,0
2018-08-31T02:06:50.776Z,0
2018-08-31T02:07:31.188Z,0
2018-08-31T02:08:11.559Z,0
2018-08-31T02:08:51.980Z,0
2018-08-31T02:09:32.331Z,0
2018-08-31T02:10:12.720Z,0
2018-08-31T02:10:53.135Z,0
2018-08-31T02:11:33.529Z,0
2018-08-31T02:12:13.974Z,0
2018-08-31T02:12:54.403Z,0
2018-08-31T02:13:34.752Z,0
2018-08-31T02:14:15.177Z,0
2018-08-31T02:14:55.561Z,0
2018-08-31T02:15:35.944Z,0
2018-08-31T02:16:16.314Z,0
2018-08-31T02:16:56.698Z,0
2018-08-31T02:17:37.106Z,0
2018-08-31T02:18:17.517Z,0
2018-08-31T02:18:57.992Z,0
2018-08-31T02:19:38.364Z,0
2018-08-31T02:20:18.788Z,0
2018-08-31T02:20:59.187Z,0
2018-08-31T02:21:39.619Z,0
2018-08-31T02:22:20.046Z,0
2018-08-31T02:23:00.515Z,0
2018-08-31T02:23:40.887Z,0
2018-08-31T02:24:21.266Z,0
2018-08-31T02:25:01.620Z,0
2018-08-31T02:25:42.069Z,0
2018-08-31T02:26:22.434Z,0
2018-08-31T02:27:02.847Z,0
2018-08-31T02:27:43.267Z,0
2018-08-31T02:28:23.673Z,0
2018-08-31T02:29:04.097Z,0
2018-08-31T02:29:44.484Z,0
2018-08-31T02:30:24.895Z,0
2018-08-31T02:31:05.293Z,0
2018-08-31T02:31:45.712Z,0
2018-08-31T02:32:26.066Z,0
2018-08-31T02:33:06.475Z,0
2018-08-31T02:33:46.854Z,0
2018-08-31T02:34:27.282Z,0
2018-08-31T02:35:07.711Z,0
2018-08-31T02:35:48.069Z,0
2018-08-31T02:36:28.496Z,0
2018-08-31T02:37:08.854Z,0
2018-08-31T02:37:49.285Z,0
2018-08-31T02:38:29.670Z,0
2018-08-31T02:39:10.126Z,0
2018-08-31T02:39:50.483Z,0
2018-08-31T02:40:30.895Z,0
2018-08-31T02:41:11.267Z,0
2018-08-31T02:41:51.689Z,0
2018-08-31T02:42:32.038Z,0
2018-08-31T02:43:12.431Z,0
2018-08-31T02:43:52.862Z,0
2018-08-31T02:44:33.280Z,0
2018-08-31T02:45:13.677Z,0
2018-08-31T02:45:54.073Z,0
2018-08-31T02:46:34.463Z,0
2018-08-31T02:47:14.894Z,0
2018-08-31T02:47:55.302Z,0
2018-08-31T02:48:35.633Z,0
2018-08-31T02:49:16.056Z,0
2018-08-31T02:49:56.565Z,0
2018-08-31T02:50:36.892Z,0
2018-08-31T02:51:17.298Z,0
2018-08-31T02:51:57.685Z,0
2018-08-31T02:52:38.072Z,0
2018-08-31T02:53:18.429Z,0
2018-08-31T02:53:58.839Z,0
2018-08-31T02:54:39.247Z,0
2018-08-31T02:55:19.662Z,0
2018-08-31T02:56:00.075Z,0
2018-08-31T02:56:40.472Z,0
2018-08-31T02:57:20.806Z,0
2018-08-31T02:59:35.303Z,0
2018-08-31T03:00:15.776Z,0
2018-08-31T03:00:56.126Z,0
2018-08-31T03:01:36.536Z,0
2018-08-31T03:02:16.863Z,0
2018-08-31T03:02:57.303Z,0
2018-08-31T03:03:37.739Z,0
2018-08-31T03:04:18.101Z,0
2018-08-31T03:04:58.512Z,0
2018-08-31T03:05:38.951Z,0
2018-08-31T03:06:19.335Z,0
2018-08-31T03:06:59.740Z,0
2018-08-31T03:07:40.139Z,0
2018-08-31T03:08:20.573Z,0
2018-08-31T03:09:00.933Z,0
2018-08-31T03:09:41.322Z,0
2018-08-31T03:10:21.713Z,0
2018-08-31T03:11:02.144Z,0
2018-08-31T03:11:42.618Z,0
2018-08-31T03:12:22.947Z,0
2018-08-31T03:13:03.318Z,0
2018-08-31T03:13:43.736Z,0
2018-08-31T03:14:24.182Z,0
2018-08-31T03:15:04.543Z,0
2018-08-31T03:15:44.936Z,0
2018-08-31T03:16:25.371Z,0
2018-08-31T03:17:05.804Z,0
2018-08-31T03:17:46.192Z,0
2018-08-31T03:18:26.582Z,0
2018-08-31T03:19:06.977Z,0
2018-08-31T03:19:47.371Z,0
2018-08-31T03:20:27.865Z,0
2018-08-31T03:21:08.264Z,0
2018-08-31T03:21:48.622Z,0
2018-08-31T03:22:29.064Z,0
2018-08-31T03:23:09.465Z,0
2018-08-31T03:23:49.850Z,0
2018-08-31T03:24:30.247Z,0
2018-08-31T03:25:10.693Z,0
2018-08-31T03:25:51.167Z,0
2018-08-31T03:26:31.500Z,0
2018-08-31T03:27:11.940Z,0
2018-08-31T03:27:52.437Z,0
2018-08-31T03:28:32.737Z,0
2018-08-31T03:29:13.138Z,0
2018-08-31T03:29:53.572Z,0
2018-08-31T03:30:33.988Z,0
2018-08-31T03:31:14.392Z,0
2018-08-31T03:31:54.840Z,0
2018-08-31T03:32:35.210Z,0
2018-08-31T03:33:15.631Z,0
2018-08-31T03:33:56.115Z,0
2018-08-31T03:34:36.525Z,0
2018-08-31T03:35:16.953Z,0
2018-08-31T03:37:34.461Z,0
2018-08-31T03:38:14.876Z,0
2018-08-31T03:38:55.258Z,0
2018-08-31T03:39:35.710Z,0
2018-08-31T03:40:16.044Z,0
2018-08-31T03:40:56.492Z,0
2018-08-31T03:41:36.960Z,0
2018-08-31T03:42:17.386Z,0
2018-08-31T03:42:57.685Z,0
2018-08-31T03:43:38.075Z,0
2018-08-31T03:44:18.548Z,0
2018-08-31T03:44:58.863Z,0
2018-08-31T03:45:39.289Z,0
2018-08-31T03:46:19.816Z,0
2018-08-31T03:48:47.510Z,0
2018-08-31T03:49:27.936Z,0
2018-08-31T03:50:08.348Z,0
2018-08-31T03:50:48.721Z,0
2018-08-31T03:51:29.170Z,0
2018-08-31T03:52:09.550Z,0
2018-08-31T03:52:49.965Z,0
2018-08-31T03:53:30.403Z,0
2018-08-31T03:54:10.859Z,0
2018-08-31T03:54:51.178Z,0
2018-08-31T03:55:31.559Z,0
2018-08-31T03:56:11.968Z,0
2018-08-31T03:56:52.347Z,0
2018-08-31T03:57:32.747Z,0
2018-08-31T03:58:13.963Z,0
2018-08-31T03:58:54.385Z,0
2018-08-31T03:59:34.745Z,0
2018-08-31T04:00:15.281Z,0
2018-08-31T04:00:55.539Z,0
2018-08-31T04:01:36.021Z,0
2018-08-31T04:02:16.370Z,0
2018-08-31T04:02:56.771Z,0
2018-08-31T04:03:37.177Z,0
2018-08-31T04:04:17.657Z,0
2018-08-31T04:04:58.009Z,0
2018-08-31T04:05:38.396Z,0
2018-08-31T04:06:18.779Z,0
2018-08-31T04:06:59.185Z,0
2018-08-31T04:07:39.603Z,0
2018-08-31T04:08:20.015Z,0
2018-08-31T04:09:00.350Z,0
2018-08-31T04:09:40.772Z,0
2018-08-31T04:10:21.168Z,0
2018-08-31T04:11:01.551Z,0
2018-08-31T04:11:41.929Z,0
2018-08-31T04:12:22.325Z,0
2018-08-31T04:13:02.756Z,0
2018-08-31T04:13:43.133Z,0
2018-08-31T04:14:23.499Z,0
2018-08-31T04:15:03.986Z,0
2018-08-31T04:15:44.357Z,0
2018-08-31T04:16:25.623Z,0
2018-08-31T04:17:06.132Z,0
2018-08-31T04:17:46.722Z,0
2018-08-31T04:18:27.148Z,0
2018-08-31T04:19:07.707Z,0
2018-08-31T04:19:48.092Z,0
2018-08-31T04:20:28.499Z,0
2018-08-31T04:21:08.869Z,0
2018-08-31T04:21:49.287Z,0
2018-08-31T04:22:29.716Z,0
2018-08-31T04:23:10.099Z,0
2018-08-31T04:23:50.454Z,0
2018-08-31T04:24:30.875Z,0
2018-08-31T04:25:11.274Z,0
2018-08-31T04:25:51.677Z,0
2018-08-31T04:26:32.062Z,0
2018-08-31T04:27:12.477Z,0
2018-08-31T05:06:47.566Z,0
2018-08-31T05:07:27.768Z,0
2018-08-31T05:08:08.327Z,0
2018-08-31T05:08:48.778Z,0
2018-08-31T05:09:29.167Z,0
2018-08-31T05:10:09.609Z,0
2018-08-31T05:10:50.061Z,0
2018-08-31T05:11:30.532Z,0
2018-08-31T05:12:10.983Z,0
2018-08-31T05:12:51.555Z,0
2018-08-31T05:13:32.040Z,0
2018-08-31T05:14:12.653Z,0
2018-08-31T05:14:53.113Z,0
2018-08-31T05:15:33.640Z,0
2018-08-31T05:16:14.132Z,0
2018-08-31T05:16:54.515Z,0
2018-08-31T05:17:34.907Z,0
2018-08-31T05:18:15.301Z,5
2018-08-31T05:18:55.727Z,5
2018-08-31T05:19:36.096Z,5
2018-08-31T05:20:16.502Z,5
2018-08-31T05:20:56.880Z,5
2018-08-31T05:21:37.274Z,5
2018-08-31T05:22:17.781Z,5
2018-08-31T05:22:58.156Z,5
2018-08-31T05:23:38.669Z,5
2018-08-31T05:24:19.020Z,5
2018-08-31T05:24:59.419Z,5
2018-08-31T05:25:39.844Z,5
2018-08-31T05:26:20.232Z,5
2018-08-31T05:27:00.617Z,5
2018-08-31T05:27:41.029Z,5
2018-08-31T05:28:21.474Z,5
2018-08-31T05:29:01.827Z,5
2018-08-31T05:29:42.245Z,5
2018-08-31T05:30:22.638Z,5
2018-08-31T05:31:03.039Z,5
2018-08-31T05:31:43.481Z,5
2018-08-31T05:32:23.863Z,5
2018-08-31T05:33:04.246Z,5
2018-08-31T05:33:44.623Z,5
2018-08-31T05:34:25.049Z,5
2018-08-31T05:35:05.431Z,5
2018-08-31T05:35:45.795Z,5
2018-08-31T05:36:26.215Z,5
2018-08-31T05:37:06.572Z,5
2018-08-31T05:37:47.022Z,5
2018-08-31T05:38:27.417Z,5
2018-08-31T05:39:07.788Z,5
2018-08-31T05:39:48.187Z,5
2018-08-31T05:40:28.774Z,5
2018-08-31T05:41:09.019Z,5
2018-08-31T05:41:50.581Z,5
2018-08-31T05:42:30.972Z,5
2018-08-31T05:43:11.381Z,5
2018-08-31T05:43:51.830Z,5
2018-08-31T05:44:32.191Z,5
2018-08-31T05:45:12.574Z,5
2018-08-31T05:45:52.970Z,5
2018-08-31T05:46:33.414Z,5
2018-08-31T05:47:13.861Z,5
2018-08-31T05:47:54.327Z,5
2018-08-31T05:48:34.850Z,5
2018-08-31T05:49:15.191Z,5
2018-08-31T05:49:55.614Z,5
2018-08-31T05:50:36.008Z,5
2018-08-31T05:51:16.541Z,5
2018-08-31T05:51:56.852Z,5
2018-08-31T05:52:37.249Z,5
2018-08-31T05:57:10.915Z,5
2018-08-31T05:58:04.223Z,5
2018-08-31T05:58:57.110Z,5
2018-08-31T05:59:49.269Z,5
2018-08-31T06:00:44.837Z,10
2018-08-31T06:01:34.743Z,10
2018-08-31T06:02:14.990Z,10
2018-08-31T06:02:55.470Z,10
2018-08-31T06:03:35.725Z,10
2018-08-31T06:04:16.256Z,10
2018-08-31T06:04:56.790Z,10
2018-08-31T06:05:37.343Z,10
2018-08-31T06:06:17.744Z,10
2018-08-31T06:06:58.806Z,10
2018-08-31T06:07:39.620Z,10
2018-08-31T06:08:20.418Z,10
2018-08-31T06:09:01.732Z,10
2018-08-31T06:09:42.228Z,10
2018-08-31T06:10:22.900Z,10
2018-08-31T06:11:03.645Z,10
2018-08-31T06:11:44.257Z,10
2018-08-31T06:12:25.206Z,10
2018-08-31T06:13:05.785Z,10
2018-08-31T06:13:46.340Z,10
2018-08-31T06:14:26.762Z,10
2018-08-31T06:15:07.500Z,10
2018-08-31T06:15:47.979Z,10
2018-08-31T06:16:28.394Z,10
2018-08-31T06:17:08.863Z,10
2018-08-31T06:17:49.306Z,10
2018-08-31T06:18:29.707Z,15
2018-08-31T06:19:10.149Z,15
2018-08-31T06:19:50.619Z,15
2018-08-31T06:20:31.021Z,15
2018-08-31T06:21:11.742Z,15
2018-08-31T06:21:51.978Z,15
2018-08-31T06:22:32.484Z,15
2018-08-31T06:23:12.834Z,15
2018-08-31T06:23:53.298Z,15
2018-08-31T06:24:34.081Z,15
2018-08-31T06:25:14.276Z,20
2018-08-31T06:25:57.131Z,20
2018-08-31T06:26:39.159Z,25
2018-08-31T06:27:20.459Z,25
2018-08-31T06:28:00.884Z,30
2018-08-31T06:28:41.431Z,30
2018-08-31T06:29:21.860Z,30
2018-08-31T06:30:02.218Z,25
2018-08-31T06:30:42.693Z,25
2018-08-31T06:31:26.039Z,25
2018-08-31T06:32:06.624Z,25
2018-08-31T06:32:47.144Z,25
2018-08-31T06:33:28.391Z,25
2018-08-31T06:34:13.671Z,25
2018-08-31T06:34:56.664Z,25
2018-08-31T06:35:43.601Z,25
2018-08-31T06:36:24.136Z,30
2018-08-31T06:37:05.391Z,30
2018-08-31T06:37:45.737Z,30
2018-08-31T06:38:26.288Z,30
2018-08-31T06:39:07.713Z,30
2018-08-31T06:39:48.326Z,25
2018-08-31T06:40:30.741Z,20
2018-08-31T06:41:11.075Z,20
2018-08-31T06:41:51.530Z,20
2018-08-31T06:42:31.916Z,20
2018-08-31T06:43:12.311Z,20
2018-08-31T06:43:53.167Z,15
2018-08-31T06:44:33.629Z,15
2018-08-31T06:45:14.031Z,15
2018-08-31T06:45:54.545Z,15
2018-08-31T06:46:35.750Z,15
2018-08-31T06:47:17.355Z,15
2018-08-31T06:48:00.489Z,15
2018-08-31T06:48:44.065Z,15
2018-08-31T06:49:30.252Z,15
2018-08-31T06:50:11.024Z,15
2018-08-31T06:50:51.502Z,15
2018-08-31T06:51:33.700Z,15
2018-08-31T06:52:14.559Z,15
2018-08-31T06:52:55.296Z,15
2018-08-31T06:53:35.628Z,15
2018-08-31T06:54:16.125Z,15
2018-08-31T06:54:56.544Z,15
2018-08-31T06:55:36.926Z,15
2018-08-31T06:56:17.383Z,15
2018-08-31T06:56:57.893Z,15
2018-08-31T06:57:39.376Z,15
2018-08-31T06:58:20.026Z,15
2018-08-31T06:59:02.381Z,15
2018-08-31T06:59:44.403Z,15
2018-08-31T07:00:27.300Z,15
2018-08-31T07:02:43.229Z,15
2018-08-31T07:03:26.386Z,15
2018-08-31T07:04:06.967Z,15
2018-08-31T07:06:46.551Z,20
2018-08-31T07:09:22.023Z,20
2018-08-31T07:10:19.857Z,20
2018-08-31T07:11:07.903Z,20
2018-08-31T07:11:48.568Z,20
2018-08-31T07:12:44.514Z,20
2018-08-31T07:13:25.006Z,20
2018-08-31T07:14:05.457Z,20
2018-08-31T07:14:46.442Z,20
2018-08-31T07:15:26.903Z,20
2018-08-31T07:16:07.372Z,20
2018-08-31T07:16:47.972Z,20
2018-08-31T07:17:28.431Z,20
2018-08-31T07:18:08.734Z,25
2018-08-31T07:18:49.146Z,25
2018-08-31T07:19:29.695Z,25
2018-08-31T07:20:10.014Z,25
2018-08-31T07:20:50.414Z,30
2018-08-31T07:21:30.925Z,25
2018-08-31T07:22:11.286Z,25
2018-08-31T07:22:51.797Z,25
2018-08-31T07:23:32.224Z,25
2018-08-31T07:24:12.669Z,25
2018-08-31T07:24:53.195Z,25
2018-08-31T07:25:33.714Z,25
2018-08-31T07:26:14.357Z,25
2018-08-31T07:26:54.757Z,25
2018-08-31T07:27:35.456Z,25
2018-08-31T07:32:17.956Z,30
2018-08-31T07:32:58.283Z,30
2018-08-31T07:33:38.774Z,30
2018-08-31T07:34:19.292Z,30
2018-08-31T07:34:59.737Z,30
2018-08-31T07:35:40.121Z,30
2018-08-31T07:36:20.907Z,30
2018-08-31T07:37:01.779Z,30
2018-08-31T07:37:42.433Z,30
2018-08-31T07:38:23.121Z,30
2018-08-31T07:39:03.513Z,30
2018-08-31T07:39:43.867Z,30
2018-08-31T07:40:24.309Z,30
2018-08-31T07:41:04.831Z,30
2018-08-31T07:41:45.567Z,30
2018-08-31T07:42:26.256Z,30
2018-08-31T07:43:07.153Z,30
2018-08-31T07:43:47.664Z,30
2018-08-31T07:44:28.229Z,30
2018-08-31T07:45:08.677Z,30
2018-08-31T07:45:49.193Z,30
2018-08-31T07:46:29.557Z,30
2018-08-31T07:47:09.947Z,35
2018-08-31T07:47:50.396Z,35
2018-08-31T07:48:30.782Z,35
2018-08-31T07:49:11.244Z,35
2018-08-31T07:49:52.216Z,35
2018-08-31T07:50:32.320Z,35
2018-08-31T07:51:12.786Z,35
2018-08-31T07:51:53.160Z,35
2018-08-31T07:52:34.128Z,35
2018-08-31T07:53:14.573Z,40
2018-08-31T07:53:55.088Z,40
2018-08-31T07:54:35.500Z,40
2018-08-31T07:55:15.915Z,40
2018-08-31T07:55:56.415Z,40
2018-08-31T07:56:36.899Z,40
2018-08-31T07:57:17.396Z,45
2018-08-31T07:57:57.916Z,45
2018-08-31T07:58:38.455Z,45
2018-08-31T07:59:18.789Z,45
2018-08-31T07:59:59.248Z,45
2018-08-31T08:00:39.680Z,50
2018-08-31T08:01:20.171Z,50
2018-08-31T08:02:01.906Z,50
2018-08-31T08:02:41.980Z,50
2018-08-31T08:03:23.285Z,50
2018-08-31T08:04:03.590Z,50
2018-08-31T08:04:43.995Z,50
2018-08-31T08:05:24.441Z,50
2018-08-31T08:06:04.805Z,50
2018-08-31T08:06:45.205Z,50
2018-08-31T08:07:25.714Z,45
2018-08-31T08:08:06.402Z,45
2018-08-31T08:08:46.899Z,45
2018-08-31T08:09:27.422Z,45
2018-08-31T08:10:07.904Z,45
2018-08-31T08:10:48.252Z,45
2018-08-31T08:11:28.806Z,45
2018-08-31T08:12:09.095Z,45
2018-08-31T08:12:49.550Z,45
2018-08-31T08:13:29.950Z,45
2018-08-31T08:14:10.478Z,45
2018-08-31T08:14:51.046Z,45
2018-08-31T08:15:31.555Z,45
2018-08-31T08:16:12.100Z,45
2018-08-31T08:16:53.538Z,45
2018-08-31T08:17:34.026Z,45
2018-08-31T08:18:14.439Z,45
2018-08-31T08:22:35.840Z,50
2018-08-31T08:25:18.885Z,50
2018-08-31T08:25:59.504Z,55
2018-08-31T08:26:40.279Z,55
2018-08-31T08:27:20.722Z,55
2018-08-31T08:29:57.746Z,55
2018-08-31T08:30:38.165Z,55
2018-08-31T08:36:30.811Z,60
2018-08-31T08:37:28.521Z,60
2018-08-31T08:40:27.928Z,65
2018-08-31T08:43:10.000Z,65
2018-08-31T08:43:52.464Z,65
2018-08-31T08:44:33.030Z,65
2018-08-31T08:45:13.411Z,65
2018-08-31T08:45:54.237Z,65
2018-08-31T08:46:35.189Z,70
2018-08-31T08:47:17.269Z,70
2018-08-31T08:47:57.989Z,70
2018-08-31T08:48:38.513Z,70
2018-08-31T08:49:19.071Z,70
2018-08-31T08:50:00.315Z,70
2018-08-31T08:50:40.916Z,75
2018-08-31T08:51:23.419Z,75
2018-08-31T08:52:03.798Z,75
2018-08-31T08:52:44.256Z,75
2018-08-31T08:53:24.697Z,75
2018-08-31T08:54:05.921Z,75
2018-08-31T08:54:48.353Z,75
2018-08-31T08:55:28.967Z,75
2018-08-31T08:56:14.484Z,75
2018-08-31T08:56:56.952Z,75
2018-08-31T08:57:37.512Z,75
2018-08-31T08:58:17.952Z,75
2018-08-31T08:58:58.260Z,75
2018-08-31T08:59:38.737Z,75
2018-08-31T09:00:19.155Z,75
2018-08-31T09:00:59.486Z,75
2018-08-31T09:01:40.828Z,75
2018-08-31T09:02:22.420Z,75
2018-08-31T09:03:03.057Z,75
2018-08-31T09:03:43.694Z,75
2018-08-31T09:04:24.018Z,75
2018-08-31T09:05:04.603Z,75
2018-08-31T09:05:45.340Z,75
2018-08-31T09:06:26.017Z,75
2018-08-31T09:07:09.710Z,80
2018-08-31T09:07:50.817Z,80
2018-08-31T09:08:34.834Z,80
2018-08-31T09:09:17.730Z,80
2018-08-31T09:10:00.113Z,80
2018-08-31T09:10:43.493Z,80
2018-08-31T09:11:25.641Z,80
2018-08-31T09:12:06.279Z,80
2018-08-31T09:12:46.717Z,80
2018-08-31T09:13:29.052Z,80
2018-08-31T09:14:55.419Z,80
2018-08-31T09:17:36.684Z,80
2018-08-31T09:18:18.022Z,80
2018-08-31T09:20:36.309Z,80
2018-08-31T09:21:16.934Z,80
2018-08-31T09:21:58.676Z,80
2018-08-31T09:22:43.485Z,80
2018-08-31T09:23:33.272Z,80
2018-08-31T09:24:14.569Z,80
2018-08-31T09:24:55.728Z,80
2018-08-31T09:26:08.203Z,80
2018-08-31T09:26:52.687Z,80
2018-08-31T09:27:34.164Z,80
2018-08-31T09:29:54.392Z,80
2018-08-31T09:30:43.639Z,75
2018-08-31T09:31:27.592Z,75
2018-08-31T09:32:06.945Z,75
2018-08-31T09:32:51.830Z,80
2018-08-31T09:33:36.937Z,80
2018-08-31T09:34:19.975Z,80
2018-08-31T09:35:00.318Z,80
2018-08-31T09:35:43.397Z,80
2018-08-31T09:36:24.074Z,80
2018-08-31T09:37:06.397Z,80
2018-08-31T09:52:02.393Z,80
2018-08-31T09:52:42.833Z,80
2018-08-31T09:53:23.849Z,80
2018-08-31T09:54:04.063Z,80
2018-08-31T09:54:44.561Z,85
2018-08-31T09:55:26.077Z,80
2018-08-31T09:56:06.053Z,85
2018-08-31T09:56:47.546Z,85
2018-08-31T09:57:27.397Z,85
2018-08-31T09:58:09.343Z,85
2018-08-31T09:58:49.552Z,85
2018-08-31T09:59:30.972Z,85
2018-08-31T10:00:11.045Z,85
2018-08-31T10:00:52.646Z,85
2018-08-31T10:01:33.176Z,80
2018-08-31T10:02:14.840Z,85
2018-08-31T10:02:55.618Z,85
2018-08-31T10:08:12.789Z,85
2018-08-31T10:08:54.489Z,85
2018-08-31T10:09:36.541Z,85
2018-08-31T10:10:17.303Z,85
2018-08-31T10:10:57.775Z,85
2018-08-31T10:11:38.413Z,85
2018-08-31T10:12:19.347Z,85
2018-08-31T10:13:00.592Z,85
2018-08-31T10:13:42.028Z,85
2018-08-31T10:14:23.528Z,85
2018-08-31T10:15:03.672Z,85
2018-08-31T10:15:44.511Z,85
2018-08-31T10:16:26.168Z,85
2018-08-31T10:17:07.074Z,85
2018-08-31T10:17:50.569Z,85
2018-08-31T10:18:31.248Z,85
2018-08-31T10:19:11.890Z,85
2018-08-31T10:19:52.649Z,85
2018-08-31T10:20:33.927Z,85
2018-08-31T10:21:15.138Z,85
2018-08-31T10:21:55.012Z,85
2018-08-31T10:22:35.441Z,85
2018-08-31T10:23:16.162Z,85
2018-08-31T10:23:56.607Z,85
2018-08-31T10:24:37.104Z,85
2018-08-31T10:25:17.988Z,85
2018-08-31T10:25:58.485Z,85
2018-08-31T10:26:38.991Z,85
2018-08-31T10:27:20.193Z,85
2018-08-31T10:28:00.672Z,85
2018-08-31T10:28:41.334Z,85
2018-08-31T11:07:19.977Z,80
2018-08-31T11:08:12.481Z,75
2018-08-31T11:09:04.811Z,80
2018-08-31T11:10:10.529Z,75
2018-08-31T11:11:07.830Z,80
2018-08-31T11:12:03.350Z,75
2018-08-31T11:12:59.690Z,80
2018-08-31T11:13:58.407Z,70
2018-08-31T11:17:37.657Z,65
2018-08-31T11:18:38.854Z,65
2018-08-31T11:19:42.228Z,65
2018-08-31T11:20:38.658Z,65
2018-08-31T11:21:35.081Z,60
2018-08-31T11:22:36.207Z,60
2018-08-31T11:23:30.455Z,60
2018-08-31T11:24:47.858Z,60
2018-08-31T11:25:43.715Z,60
2018-08-31T11:26:56.457Z,60
2018-08-31T11:33:28.020Z,60
2018-08-31T11:34:31.940Z,60
2018-08-31T11:35:35.092Z,60
2018-08-31T11:36:29.429Z,60
2018-08-31T11:37:31.429Z,65
2018-08-31T11:38:31.569Z,65
2018-08-31T11:39:28.074Z,75
2018-08-31T11:42:27.326Z,60
2018-08-31T11:43:21.737Z,60
2018-08-31T11:44:16.464Z,60
2018-08-31T11:45:12.883Z,75
2018-08-31T11:46:10.358Z,75
2018-08-31T11:47:06.773Z,75
2018-08-31T11:48:02.819Z,75
2018-08-31T11:48:59.517Z,70
2018-08-31T11:49:57.075Z,60
2018-08-31T11:53:15.226Z,50
2018-08-31T11:54:08.663Z,45
2018-08-31T11:55:03.046Z,45
2018-08-31T11:55:57.094Z,45
2018-08-31T11:56:52.601Z,45
2018-08-31T11:59:26.928Z,45
2018-08-31T12:00:21.470Z,45
2018-08-31T12:01:19.558Z,45
2018-08-31T12:02:11.203Z,45
2018-08-31T12:03:06.070Z,45
2018-08-31T12:04:06.945Z,45
2018-08-31T12:05:02.716Z,45
2018-08-31T12:06:01.907Z,45
2018-08-31T12:07:10.750Z,45
2018-08-31T12:08:04.347Z,45
2018-08-31T12:09:02.364Z,55
2018-08-31T12:09:56.060Z,50
2018-08-31T12:10:52.603Z,70
2018-08-31T12:11:48.693Z,75
2018-08-31T12:12:44.006Z,50
2018-08-31T12:13:42.285Z,50
2018-08-31T12:14:38.943Z,55
2018-08-31T12:15:34.971Z,75
2018-08-31T12:16:27.846Z,80
2018-08-31T12:17:19.961Z,75
2018-08-31T12:18:06.072Z,75
2018-08-31T12:18:46.513Z,75
2018-08-31T12:19:27.967Z,75
2018-08-31T12:20:07.588Z,75
2018-08-31T12:20:48.284Z,75
2018-08-31T12:21:29.344Z,75
2018-08-31T12:22:09.516Z,75
2018-08-31T12:22:50.963Z,75
2018-08-31T12:23:32.460Z,75
2018-08-31T12:24:12.658Z,75
2018-08-31T12:24:53.454Z,75
2018-08-31T12:25:39.338Z,75
2018-08-31T12:26:32.119Z,75
2018-08-31T12:27:25.381Z,80
2018-08-31T12:28:06.073Z,80
2018-08-31T12:28:46.562Z,80
2018-08-31T12:29:27.351Z,80
2018-08-31T12:30:09.515Z,80
2018-08-31T12:30:50.489Z,80
2018-08-31T12:31:30.734Z,80
2018-08-31T12:32:12.608Z,80
2018-08-31T12:32:53.577Z,80
2018-08-31T12:33:38.450Z,80
2018-08-31T12:34:24.696Z,80
2018-08-31T12:35:05.591Z,80
2018-08-31T12:35:48.349Z,80
2018-08-31T12:36:35.041Z,80
2018-08-31T12:37:16.953Z,80
2018-08-31T12:38:00.453Z,80
2018-08-31T12:38:42.042Z,80
2018-08-31T12:39:23.808Z,80
2018-08-31T12:40:04.727Z,80
2018-08-31T12:40:45.388Z,80
2018-08-31T12:41:26.276Z,75
2018-08-31T12:42:06.938Z,75
2018-08-31T12:42:49.767Z,75
2018-08-31T12:43:31.055Z,75
2018-08-31T12:44:16.422Z,75
2018-08-31T12:44:57.647Z,80
2018-08-31T12:45:38.416Z,80
2018-08-31T12:46:19.552Z,55
2018-08-31T12:47:01.056Z,55
2018-08-31T12:47:41.786Z,55